map of POP home
Great Circle Mapper logo
POP - Airport
Location
City:  Puerto Plata, Dominican Republic
Name:Gregorio Luperón International Airport
ICAO / IATA:MDPP / POP

Details
Type:Airport (Aerodrome, Airfield)
Use:Public/Civil, Military, International (customs port of entry)
Latitude:19°45'28"N (19.757900)
Longitude:70°34'12"W (-70.570032)
Datum:WGS 1984
Elevation:15 ft (5 m)
Runways:1
Longest:10108 × 151 ft (3081 × 46 m), paved

Time
Time Zone:UTC-4
Local Time:

Weather
METAR:MDPP 010900Z VRB03KT 9999 TS FEW016CB 25/25 Q1013 CB/N
TAF:MDPP 010400Z 0106/0206 00000KT 9999 FEW016CB SCT018 SCT070 PROB30 0106/0109 7000 -TSRA FEW014CB BKN016 BKN070
BECMG 0114/0116 09012KT TAF MDST 010400Z 0106/0206 14010KT 9999 FEW016CB SCT018 PROB30 0106/0109 7000 -TSRA FEW014CB BKN016 SCT070
BECMG 0108/0110 08004KT TAF MDPC 010400Z 0106/0206010400Z 0106/0206 04006KT 9999 FEW020CB SCT022 PROB30 0106/0112 8000 -TSRA FEW016CB SCT018 SCT070

Related Locations
Nearby:
Farthest:EXM: 12103 mi / 19479 km
Exmouth Gulf, WA, AU

Find:

   beyond  
but within

Other Information
Maps:
NOTAMs:
Links:
Sources:

  
flag of Dominican Republic   

Sectional Chart

Flight Planning
at skyvector.com

Satellite Image

Google Maps Satellite View

 

Copyright © 2004-2014 Karl L. Swartz. All rights reserved.
The Great Circle Mapper name and logo are trademarks of the Great Circle Mapper.
All other trademarks mentioned herein belong to their respective owners.
Please see credits for attibutions and further copyright information.

  Follow gcmap on Facebook Follow gcmap on Twitter

hCard Microformat

Geo Microformat